Time;durP1;ratioP1;P1;durP2;ratioP2;P2;SDS_P1;SDS_P2;PMS_P1;PMS_P2;Temp;Humidity;BMP_temperature;BMP_pressure;BME280_temperature;BME280_humidity;BME280_pressure;Samples;Min_cycle;Max_cycle;Signal;HPM_P1;HPM_P2
2023/09/11 05:16:13;;;;;;;11.70;5.78;;;;;;;15.97;100.00;94633.69;5842433;22;20048;-82
2023/09/11 05:18:38;;;;;;;12.32;6.85;;;;;;;15.92;100.00;94639.88;5035614;28;20041;-82
2023/09/11 05:21:03;;;;;;;11.13;6.18;;;;;;;15.97;100.00;94633.69;5027714;28;20452;-82
2023/09/11 05:23:29;;;;;;;11.20;6.40;;;;;;;15.91;100.00;94633.00;5056053;28;20039;-82
2023/09/11 05:25:54;;;;;;;11.38;6.18;;;;;;;15.95;100.00;94636.63;5055828;28;20036;-82
2023/09/11 05:28:20;;;;;;;12.60;6.20;;;;;;;15.93;100.00;94633.50;5055451;28;20043;-82
2023/09/11 05:30:45;;;;;;;10.40;6.90;;;;;;;15.98;100.00;94640.53;5055758;28;20039;-83
2023/09/11 05:33:10;;;;;;;10.57;6.25;;;;;;;15.93;100.00;94638.78;5039368;28;20029;-83
2023/09/11 05:35:36;;;;;;;11.77;6.60;;;;;;;16.04;100.00;94634.09;5039318;28;20079;-83
2023/09/11 05:38:02;;;;;;;8.43;5.53;;;;;;;16.17;100.00;94632.50;5055531;28;20036;-82
2023/09/11 05:40:27;;;;;;;11.50;6.00;;;;;;;16.25;100.00;94631.81;5055756;28;20116;-82
2023/09/11 05:42:53;;;;;;;9.27;6.35;;;;;;;16.39;100.00;94639.69;5055639;28;20099;-83
2023/09/11 05:45:18;;;;;;;8.13;5.45;;;;;;;16.59;100.00;94636.91;5039054;28;20037;-83
2023/09/11 05:47:44;;;;;;;8.57;5.82;;;;;;;16.75;100.00;94632.84;5038718;28;20070;-83
2023/09/11 05:50:09;;;;;;;8.75;6.20;;;;;;;16.92;100.00;94639.34;5055643;28;20029;-83
2023/09/11 05:52:35;;;;;;;8.50;5.72;;;;;;;16.97;100.00;94639.25;5055517;28;20033;-82
2023/09/11 05:55:00;;;;;;;8.52;5.93;;;;;;;17.04;100.00;94638.84;5055361;28;20032;-83
2023/09/11 05:57:25;;;;;;;9.95;5.60;;;;;;;17.26;100.00;94639.91;5054697;28;20029;-82
2023/09/11 05:59:51;;;;;;;8.60;5.72;;;;;;;17.54;100.00;94627.28;5055719;28;20033;-82
2023/09/11 06:02:16;;;;;;;10.90;5.70;;;;;;;17.52;100.00;94642.72;5055418;28;20457;-83
2023/09/11 06:04:42;;;;;;;10.10;5.65;;;;;;;17.53;100.00;94633.66;5055401;28;20025;-82
2023/09/11 06:07:07;;;;;;;8.10;5.38;;;;;;;17.78;100.00;94637.50;5055292;28;20033;-82
2023/09/11 06:09:32;;;;;;;12.82;5.47;;;;;;;17.88;100.00;94640.97;5039012;28;20036;-82
2023/09/11 06:11:58;;;;;;;7.72;5.20;;;;;;;18.09;100.00;94634.03;5055023;28;20037;-82
2023/09/11 06:14:23;;;;;;;13.68;5.43;;;;;;;18.20;100.00;94644.38;5055680;28;20082;-83
2023/09/11 06:16:49;;;;;;;10.20;5.15;;;;;;;18.33;100.00;94647.97;5055609;28;20033;-83
2023/09/11 06:19:16;;;;;;;8.32;5.45;;;;;;;18.25;100.00;94646.09;5039015;28;20043;-83
2023/09/11 06:21:45;;;;;;;8.88;5.35;;;;;;;18.23;100.00;94647.19;5053066;28;20025;-82
2023/09/11 06:24:14;;;;;;;9.52;5.45;;;;;;;18.57;100.00;94649.41;5055151;28;20029;-82
2023/09/11 06:26:43;;;;;;;9.30;5.30;;;;;;;18.73;100.00;94647.88;5055160;28;20425;-82
2023/09/11 06:29:09;;;;;;;8.63;5.53;;;;;;;18.86;100.00;94646.13;5054905;28;20099;-81
2023/09/11 06:31:35;;;;;;;8.10;5.18;;;;;;;19.09;100.00;94645.22;5055729;28;20041;-81
2023/09/11 06:34:05;;;;;;;10.90;5.35;;;;;;;19.21;100.00;94646.13;5042024;28;20381;-81
2023/09/11 06:36:30;;;;;;;7.93;5.03;;;;;;;19.31;100.00;94646.91;5059082;28;20051;-82
2023/09/11 06:38:56;;;;;;;7.88;5.60;;;;;;;19.28;100.00;94645.66;5058873;28;20032;-82
2023/09/11 06:41:21;;;;;;;8.60;5.70;;;;;;;19.35;100.00;94647.84;5058878;28;20448;-82
2023/09/11 06:43:47;;;;;;;11.38;5.57;;;;;;;19.43;100.00;94646.25;5060344;28;20110;-81
2023/09/11 06:46:12;;;;;;;11.25;5.57;;;;;;;19.44;100.00;94643.28;5058902;28;20029;-81
2023/09/11 06:48:40;;;;;;;9.55;5.55;;;;;;;19.62;100.00;94643.22;5042304;28;20037;-82
2023/09/11 06:51:06;;;;;;;7.93;5.53;;;;;;;19.74;100.00;94645.22;5058725;28;20120;-82
2023/09/11 06:53:36;;;;;;;10.68;5.45;;;;;;;19.75;100.00;94649.44;5058912;28;20033;-81
2023/09/11 06:56:05;;;;;;;8.30;5.30;;;;;;;19.84;100.00;94650.19;5059886;28;20461;-82
2023/09/11 06:58:33;;;;;;;8.20;5.07;;;;;;;19.93;100.00;94647.50;5058411;28;20326;-82
2023/09/11 07:00:59;;;;;;;9.95;5.68;;;;;;;20.06;100.00;94656.34;5042192;28;20025;-81
2023/09/11 07:03:27;;;;;;;8.98;5.22;;;;;;;20.17;100.00;94656.78;5058537;28;20452;-82
2023/09/11 07:05:52;;;;;;;8.73;5.38;;;;;;;20.17;100.00;94656.78;5058507;28;20034;-82
2023/09/11 07:08:18;;;;;;;9.82;6.00;;;;;;;20.34;100.00;94651.38;5058570;28;20121;-81
2023/09/11 07:10:49;;;;;;;7.03;5.43;;;;;;;20.32;100.00;94658.91;5059526;28;20444;-82
2023/09/11 07:13:14;;;;;;;8.30;5.47;;;;;;;20.44;100.00;94660.06;5058473;28;20033;-82
2023/09/11 07:15:43;;;;;;;9.57;5.75;;;;;;;20.45;100.00;94661.66;5058652;28;20337;-82
2023/09/11 07:18:13;;;;;;;8.07;5.93;;;;;;;20.41;100.00;94660.72;5041369;28;20036;-82
2023/09/11 07:20:47;;;;;;;8.80;6.00;;;;;;;20.17;100.00;94656.78;5041883;28;20037;-82
2023/09/11 07:23:13;;;;;;;11.55;6.07;;;;;;;19.88;100.00;94661.72;5058231;28;20060;-82
2023/09/11 07:25:51;;;;;;;;;;;;;;;;;;;;;
2023/09/11 07:28:26;;;;;;;10.88;5.88;;;;;;;20.33;100.00;94662.31;5057965;28;20020;-82
2023/09/11 07:31:02;;;;;;;;;;;;;;;;;;;;;
2023/09/11 07:33:29;;;;;;;9.57;6.00;;;;;;;20.57;100.00;94658.28;5038168;28;20021;-82
2023/09/11 07:35:56;;;;;;;8.05;5.97;;;;;;;20.62;100.00;94666.84;5038038;28;20322;-82
2023/09/11 07:38:22;;;;;;;10.90;6.20;;;;;;;20.73;100.00;94661.91;5037874;28;20349;-82
2023/09/11 07:40:47;;;;;;;9.13;5.88;;;;;;;20.82;100.00;94651.22;5021604;28;20029;-82
2023/09/11 07:43:13;;;;;;;12.02;6.80;;;;;;;20.65;100.00;94661.97;5020294;28;20494;-82
2023/09/11 07:45:38;;;;;;;11.05;5.82;;;;;;;20.89;100.00;94664.00;5021516;28;20072;-82
2023/09/11 07:48:04;;;;;;;7.68;5.35;;;;;;;21.09;100.00;94657.09;5038924;28;20033;-82
2023/09/11 07:50:32;;;;;;;9.27;6.22;;;;;;;21.08;100.00;94663.53;5025848;28;20124;-82
2023/09/11 07:52:58;;;;;;;8.38;5.70;;;;;;;21.12;100.00;94661.00;5054230;28;20083;-82
2023/09/11 07:55:26;;;;;;;8.48;5.93;;;;;;;21.00;100.00;94665.19;5054074;28;20029;-82
2023/09/11 07:57:52;;;;;;;9.60;5.85;;;;;;;21.31;100.00;94663.94;5047039;28;20315;-82
2023/09/11 08:00:18;;;;;;;9.10;5.95;;;;;;;21.51;100.00;94666.88;5057819;28;20166;-81
2023/09/11 08:02:43;;;;;;;12.32;5.72;;;;;;;21.66;100.00;94662.84;5041177;28;20112;-82
2023/09/11 08:05:09;;;;;;;9.75;5.53;;;;;;;21.84;100.00;94655.44;5057372;28;20040;-81
2023/09/11 08:07:34;;;;;;;7.80;5.80;;;;;;;22.05;100.00;94659.88;5057546;28;20040;-82
2023/09/11 08:10:00;;;;;;;9.00;5.05;;;;;;;22.10;100.00;94661.53;5040571;28;20029;-82
2023/09/11 08:12:25;;;;;;;7.05;5.22;;;;;;;22.08;100.00;94659.19;5037687;28;20033;-82
2023/09/11 08:14:51;;;;;;;9.23;5.43;;;;;;;22.38;100.00;94658.19;5053767;28;20028;-81
2023/09/11 08:17:16;;;;;;;14.95;5.45;;;;;;;22.25;100.00;94657.44;5056888;28;20041;-81
2023/09/11 08:19:41;;;;;;;6.68;5.05;;;;;;;22.45;100.00;94661.84;5058291;28;20036;-82
2023/09/11 08:22:07;;;;;;;7.65;5.45;;;;;;;22.60;100.00;94659.63;5040567;28;20029;-82
2023/09/11 08:24:32;;;;;;;11.57;5.90;;;;;;;22.68;100.00;94661.41;5048353;28;20029;-82
2023/09/11 08:26:58;;;;;;;7.72;5.18;;;;;;;22.79;100.00;94660.91;5020553;28;20037;-82
2023/09/11 08:29:23;;;;;;;10.30;5.45;;;;;;;22.89;98.16;94663.13;5039790;28;20032;-82
2023/09/11 08:31:49;;;;;;;10.38;5.38;;;;;;;22.92;98.76;94662.44;5057050;28;20171;-85
2023/09/11 08:34:14;;;;;;;7.85;5.10;;;;;;;23.02;100.00;94653.16;5040473;28;20119;-85
2023/09/11 08:36:40;;;;;;;7.88;5.43;;;;;;;23.19;98.96;94657.44;5056824;28;20037;-83
2023/09/11 08:39:07;;;;;;;9.38;5.35;;;;;;;23.22;92.22;94661.34;5040659;28;20040;-84
2023/09/11 08:41:33;;;;;;;10.07;5.55;;;;;;;23.41;93.23;94655.38;5056783;28;20036;-83
2023/09/11 08:43:58;;;;;;;8.77;5.72;;;;;;;23.36;85.90;94652.94;5056966;28;20131;-84
2023/09/11 08:46:31;;;;;;;9.20;5.43;;;;;;;23.43;87.57;94647.78;5040277;28;20024;-83
2023/09/11 08:49:00;;;;;;;7.28;5.22;;;;;;;23.57;90.81;94645.47;5040518;28;20032;-84
2023/09/11 08:51:29;;;;;;;10.23;5.13;;;;;;;23.75;87.46;94655.06;5056683;28;20035;-84
2023/09/11 08:53:58;;;;;;;8.63;5.00;;;;;;;23.64;83.62;94649.44;5039630;28;20342;-84
2023/09/11 08:56:24;;;;;;;9.07;5.78;;;;;;;23.56;83.62;94645.81;5040604;28;20036;-84
2023/09/11 08:58:51;;;;;;;7.03;5.10;;;;;;;23.62;82.12;94646.31;5056583;28;20029;-84
2023/09/11 09:01:18;;;;;;;8.30;5.30;;;;;;;23.82;82.73;94642.63;5056337;28;20511;-84
2023/09/11 09:03:44;;;;;;;8.70;5.68;;;;;;;23.88;81.60;94651.16;5056369;28;20079;-83
2023/09/11 09:06:10;;;;;;;10.13;5.05;;;;;;;23.98;81.61;94649.88;5056438;28;20056;-83
2023/09/11 09:08:36;;;;;;;10.60;5.35;;;;;;;23.63;84.13;94653.22;5039511;28;20071;-83
2023/09/11 09:11:01;;;;;;;10.05;5.28;;;;;;;23.81;77.56;94643.72;5036338;28;20037;-84
2023/09/11 09:13:29;;;;;;;7.78;5.28;;;;;;;24.04;79.85;94647.75;5052889;28;20033;-84
2023/09/11 09:15:57;;;;;;;17.58;5.50;;;;;;;24.06;78.52;94638.22;5034002;28;20127;-84
2023/09/11 09:18:22;;;;;;;9.70;5.30;;;;;;;23.93;77.21;94642.09;5039969;28;20115;-84
2023/09/11 09:20:48;;;;;;;15.52;5.47;;;;;;;23.92;78.77;94638.66;5056001;28;20425;-84
2023/09/11 09:23:14;;;;;;;8.68;5.28;;;;;;;23.99;77.05;94636.13;5056116;28;20452;-83
2023/09/11 09:25:40;;;;;;;11.75;4.97;;;;;;;24.32;80.83;94636.09;5039310;28;20039;-83
2023/09/11 09:28:05;;;;;;;8.45;5.53;;;;;;;24.47;76.94;94638.00;5055958;28;20438;-82
2023/09/11 09:30:32;;;;;;;9.15;5.28;;;;;;;24.71;75.89;94638.84;5072333;28;20425;-84
2023/09/11 09:33:02;;;;;;;9.57;4.97;;;;;;;24.76;73.37;94635.94;5036250;28;20446;-84
2023/09/11 09:35:36;;;;;;;9.07;4.97;;;;;;;24.75;74.37;94629.00;5019277;28;20041;-83
2023/09/11 09:38:02;;;;;;;14.30;5.53;;;;;;;24.75;73.03;94638.94;5035830;28;20547;-86
2023/09/11 09:40:35;;;;;;;8.05;5.20;;;;;;;24.46;71.92;94631.09;5035799;28;20057;-84
2023/09/11 09:43:05;;;;;;;7.70;4.80;;;;;;;24.77;79.05;94628.66;5036842;28;20040;-83
2023/09/11 09:45:35;;;;;;;7.80;5.00;;;;;;;24.87;69.89;94630.78;5035727;28;20033;-83
2023/09/11 09:48:21;;;;;;;6.20;4.32;;;;;;;25.10;72.92;94614.75;5036790;28;20060;-84
2023/09/11 09:51:01;;;;;;;7.18;5.00;;;;;;;25.14;72.89;94617.53;5035311;28;20037;-84
2023/09/11 09:53:35;;;;;;;12.30;5.25;;;;;;;25.16;71.93;94617.16;5035723;28;20033;-84
2023/09/11 09:56:03;;;;;;;7.18;4.22;;;;;;;25.34;70.17;94610.22;5035649;28;20385;-84
2023/09/11 09:58:30;;;;;;;8.27;4.60;;;;;;;25.49;70.24;94605.88;5035275;28;20029;-84
2023/09/11 10:01:12;;;;;;;9.30;5.05;;;;;;;25.60;70.49;94611.44;5036726;28;20033;-85
2023/09/11 10:03:47;;;;;;;7.93;4.78;;;;;;;25.51;68.85;94606.31;5036618;28;20029;-85
2023/09/11 10:06:17;;;;;;;7.70;5.00;;;;;;;25.52;68.16;94601.72;5035920;28;20116;-84
2023/09/11 10:08:43;;;;;;;8.15;5.00;;;;;;;25.27;65.60;94594.78;5036538;28;20426;-83
2023/09/11 10:11:26;;;;;;;8.85;4.78;;;;;;;25.63;69.01;94588.50;5035359;28;20095;-84
2023/09/11 10:13:51;;;;;;;7.00;4.77;;;;;;;25.76;67.07;94587.16;5035789;28;20339;-83
2023/09/11 10:16:17;;;;;;;7.28;5.20;;;;;;;25.73;64.86;94592.47;5035743;28;20033;-85
2023/09/11 10:18:45;;;;;;;10.02;5.32;;;;;;;25.76;63.65;94589.84;5035237;28;20029;-81
2023/09/11 10:21:11;;;;;;;7.53;4.80;;;;;;;25.86;64.78;94585.00;5050782;28;20025;-82
2023/09/11 10:23:37;;;;;;;7.85;5.20;;;;;;;26.03;62.43;94579.13;5054487;28;20434;-81
2023/09/11 10:26:05;;;;;;;6.82;4.63;;;;;;;26.15;60.82;94580.81;5054464;28;20119;-81
2023/09/11 10:28:37;;;;;;;8.63;4.75;;;;;;;25.98;59.78;94574.84;5055959;28;20028;-82
2023/09/11 10:31:11;;;;;;;7.70;4.70;;;;;;;26.29;58.95;94569.53;5055104;28;20110;-82
2023/09/11 10:33:38;;;;;;;9.85;4.35;;;;;;;26.10;58.65;94571.16;5072045;28;20434;-83
2023/09/11 10:36:07;;;;;;;7.15;4.68;;;;;;;26.13;58.52;94564.31;5038703;28;20029;-83
2023/09/11 10:38:33;;;;;;;6.95;4.93;;;;;;;26.26;60.07;94570.28;5038267;28;20025;-82
2023/09/11 10:41:00;;;;;;;8.25;4.35;;;;;;;26.16;59.57;94562.81;5055026;28;20039;-82
2023/09/11 10:43:26;;;;;;;6.95;4.70;;;;;;;26.09;59.24;94566.19;5054977;28;20064;-82
2023/09/11 10:45:52;;;;;;;10.80;4.82;;;;;;;26.20;58.27;94569.03;5056194;28;20460;-83
2023/09/11 10:48:28;;;;;;;11.68;4.95;;;;;;;26.15;58.25;94562.03;5054793;28;20028;-82
2023/09/11 10:50:56;;;;;;;9.63;4.72;;;;;;;26.43;58.13;94565.50;5054920;28;20049;-82
2023/09/11 10:53:25;;;;;;;9.27;5.13;;;;;;;26.70;58.38;94568.13;5054999;28;20029;-82
2023/09/11 10:55:51;;;;;;;5.90;4.63;;;;;;;26.81;56.55;94571.69;5054888;28;20032;-82
2023/09/11 10:58:16;;;;;;;6.85;4.07;;;;;;;26.90;57.78;94569.53;5054977;28;20349;-82
2023/09/11 11:00:41;;;;;;;8.23;5.07;;;;;;;27.15;56.09;94563.63;5054853;28;20025;-84
2023/09/11 11:03:07;;;;;;;5.80;4.35;;;;;;;26.44;56.06;94559.75;5054821;28;20025;-83
2023/09/11 11:05:33;;;;;;;10.35;5.05;;;;;;;26.68;56.97;94561.19;5071428;28;20025;-83
2023/09/11 11:07:58;;;;;;;8.15;4.85;;;;;;;26.88;57.64;94550.31;5054724;28;20032;-83
2023/09/11 11:10:23;;;;;;;8.25;4.90;;;;;;;27.03;57.54;94555.81;5054808;28;20357;-82
2023/09/11 11:13:04;;;;;;;11.10;5.63;;;;;;;26.76;56.63;94553.22;5054703;28;20090;-83
2023/09/11 11:15:29;;;;;;;8.90;4.53;;;;;;;27.16;57.18;94548.25;5038417;28;20032;-82
2023/09/11 11:18:11;;;;;;;6.38;4.93;;;;;;;27.36;56.17;94546.91;5056415;28;20043;-83
2023/09/11 11:20:41;;;;;;;7.93;4.97;;;;;;;27.02;55.20;94543.53;5058339;28;20049;-83
2023/09/11 11:23:11;;;;;;;13.80;5.55;;;;;;;27.35;55.10;94545.38;5058504;28;20169;-83
2023/09/11 11:25:48;;;;;;;10.10;5.10;;;;;;;27.46;54.95;94545.47;5058227;28;20461;-83
2023/09/11 11:28:16;;;;;;;9.85;4.50;;;;;;;27.42;54.71;94543.88;5058027;28;20044;-81
2023/09/11 11:30:43;;;;;;;7.28;4.78;;;;;;;27.61;54.45;94530.22;5041756;28;20064;-83
2023/09/11 11:33:14;;;;;;;9.65;4.65;;;;;;;27.24;54.88;94533.75;5041662;28;20388;-84
2023/09/11 11:35:44;;;;;;;9.63;4.63;;;;;;;27.32;55.37;94532.66;5074962;28;20048;-82
2023/09/11 11:38:17;;;;;;;9.40;4.57;;;;;;;27.51;57.09;94530.91;5041823;28;20434;-83
2023/09/11 11:40:43;;;;;;;9.32;4.90;;;;;;;27.26;54.61;94536.84;5059150;28;20094;-83
2023/09/11 11:43:09;;;;;;;6.57;4.20;;;;;;;27.33;53.72;94538.81;5057757;28;20032;-82
2023/09/11 11:45:37;;;;;;;12.55;5.38;;;;;;;27.51;53.55;94528.97;5058051;28;20025;-82
2023/09/11 11:48:03;;;;;;;6.72;4.72;;;;;;;27.27;51.98;94534.94;5057722;28;20021;-83
2023/09/11 11:50:30;;;;;;;8.57;4.57;;;;;;;27.63;53.29;94530.63;5074986;28;20025;-82
2023/09/11 11:52:56;;;;;;;7.20;4.25;;;;;;;27.74;52.47;94530.69;5057639;28;20025;-82
2023/09/11 11:55:23;;;;;;;10.50;4.53;;;;;;;28.12;52.34;94527.06;5057686;28;20070;-82
2023/09/11 11:57:52;;;;;;;7.05;4.68;;;;;;;28.21;53.36;94538.31;5041112;28;20441;-83
2023/09/11 12:00:18;;;;;;;12.77;5.28;;;;;;;28.32;52.95;94528.38;5056585;28;20024;-84
2023/09/11 12:02:44;;;;;;;6.88;4.47;;;;;;;28.19;55.78;94524.44;5057551;28;20059;-84
2023/09/11 12:05:13;;;;;;;8.70;4.85;;;;;;;28.29;53.57;94520.25;5057424;28;20025;-83
2023/09/11 12:07:39;;;;;;;6.93;4.70;;;;;;;27.82;54.92;94526.13;5057350;28;20028;-84
2023/09/11 12:10:09;;;;;;;6.30;4.55;;;;;;;27.73;53.29;94521.09;5040993;28;20028;-83
2023/09/11 12:12:40;;;;;;;10.95;4.80;;;;;;;27.89;54.25;94520.78;5057311;28;20021;-83
2023/09/11 12:15:06;;;;;;;11.55;4.85;;;;;;;27.71;54.87;94511.84;5057348;28;20069;-83
2023/09/11 12:17:32;;;;;;;12.52;5.25;;;;;;;27.62;55.98;94504.09;5040792;28;20068;-83
2023/09/11 12:20:13;;;;;;;7.82;4.97;;;;;;;27.64;54.13;94517.94;5057367;28;20382;-82
2023/09/11 12:22:41;;;;;;;11.90;4.90;;;;;;;27.86;54.62;94512.72;5057195;28;20388;-84
2023/09/11 12:25:07;;;;;;;6.90;5.10;;;;;;;27.82;54.00;94509.19;5057281;28;20029;-83
2023/09/11 12:27:34;;;;;;;9.68;5.13;;;;;;;27.36;53.28;94508.47;5058056;28;20377;-85
2023/09/11 12:29:59;;;;;;;7.82;5.25;;;;;;;27.85;54.38;94503.09;5056259;28;20032;-86
2023/09/11 12:32:27;;;;;;;11.73;4.85;;;;;;;27.74;55.69;94503.00;5052807;28;20039;-83
2023/09/11 12:34:52;;;;;;;6.28;4.90;;;;;;;27.86;53.63;94501.94;5058081;28;20444;-83
2023/09/11 12:37:18;;;;;;;11.18;5.28;;;;;;;28.01;54.54;94502.78;5040297;28;20056;-84
2023/09/11 12:39:43;;;;;;;8.73;5.18;;;;;;;28.45;54.79;94499.16;5057009;28;20465;-83
2023/09/11 12:42:11;;;;;;;7.53;5.50;;;;;;;28.17;53.59;94497.13;5056938;28;20029;-84
2023/09/11 12:44:38;;;;;;;9.32;5.60;;;;;;;27.86;54.31;94496.56;5040638;28;20036;-84
2023/09/11 12:47:04;;;;;;;9.43;5.00;;;;;;;28.51;54.69;94491.47;5040404;28;20123;-84
2023/09/11 12:49:30;;;;;;;10.80;5.03;;;;;;;28.65;52.50;94494.22;5057807;28;20417;-83
2023/09/11 12:51:55;;;;;;;9.20;5.15;;;;;;;28.77;52.34;94492.31;5039986;28;20119;-84
2023/09/11 12:54:22;;;;;;;7.53;5.38;;;;;;;28.70;51.79;94497.69;5056472;28;20029;-84
2023/09/11 12:56:47;;;;;;;7.65;4.60;;;;;;;28.90;51.57;94495.44;5056467;28;20074;-84
2023/09/11 12:59:13;;;;;;;6.88;4.90;;;;;;;28.77;50.96;94489.63;5056507;28;20029;-84
2023/09/11 13:01:39;;;;;;;7.82;4.63;;;;;;;28.64;51.11;94481.88;5056916;28;20115;-84
2023/09/11 13:04:07;;;;;;;9.50;5.20;;;;;;;28.48;50.47;94482.25;5057848;28;20024;-84
2023/09/11 13:06:33;;;;;;;13.80;5.32;;;;;;;28.18;51.29;94474.44;5056693;28;20029;-83
2023/09/11 13:08:58;;;;;;;9.43;5.40;;;;;;;28.39;50.17;94467.56;5056064;28;20379;-83
2023/09/11 13:11:24;;;;;;;8.38;4.85;;;;;;;28.39;51.82;94472.94;5051124;28;20037;-84
2023/09/11 13:13:50;;;;;;;10.27;5.35;;;;;;;28.22;50.94;94465.22;5054624;28;20029;-84
2023/09/11 13:16:15;;;;;;;17.35;5.47;;;;;;;28.80;51.49;94469.97;5055440;28;20040;-86
2023/09/11 13:18:43;;;;;;;7.50;4.80;;;;;;;28.97;51.12;94462.31;5036272;28;20430;-83
2023/09/11 13:21:09;;;;;;;7.53;5.28;;;;;;;29.03;49.68;94455.41;5025091;28;20338;-87
2023/09/11 13:23:34;;;;;;;7.07;5.00;;;;;;;29.47;49.82;94453.47;5036515;28;20056;-84
2023/09/11 13:26:00;;;;;;;7.22;4.60;;;;;;;29.61;48.86;94452.69;5028988;28;20029;-84
2023/09/11 13:28:25;;;;;;;15.63;4.82;;;;;;;29.79;47.98;94455.38;5050326;28;20060;-84
2023/09/11 13:30:51;;;;;;;8.75;4.80;;;;;;;29.71;48.24;94448.44;5019409;28;20026;-83
2023/09/11 13:33:16;;;;;;;7.18;5.10;;;;;;;28.91;49.50;94448.47;5037063;28;20025;-83
2023/09/11 13:35:41;;;;;;;9.98;6.00;;;;;;;29.26;49.45;94433.44;5035611;28;20032;-82
2023/09/11 13:38:07;;;;;;;9.68;5.55;;;;;;;29.36;50.46;94439.97;5047411;28;20033;-84
2023/09/11 13:40:34;;;;;;;16.00;5.82;;;;;;;29.57;51.21;94438.44;5038851;28;20024;-85
2023/09/11 13:43:01;;;;;;;8.40;5.75;;;;;;;29.20;51.14;94446.53;5071914;28;20032;-83
2023/09/11 13:45:29;;;;;;;12.90;6.20;;;;;;;28.96;52.72;94436.50;5051248;28;20119;-84
2023/09/11 13:47:56;;;;;;;13.93;6.57;;;;;;;28.26;52.54;94440.97;5053587;28;20025;-84
2023/09/11 13:50:21;;;;;;;11.70;5.80;;;;;;;28.94;52.45;94439.63;5035212;28;20040;-84
2023/09/11 13:52:47;;;;;;;9.07;5.90;;;;;;;28.56;53.31;94436.44;5035428;28;20034;-84
2023/09/11 13:55:12;;;;;;;12.77;5.93;;;;;;;28.86;53.89;94436.13;5036669;28;20033;-84
2023/09/11 13:57:37;;;;;;;9.88;6.40;;;;;;;29.85;52.23;94431.44;5035496;28;20202;-83
2023/09/11 14:00:04;;;;;;;8.80;5.43;;;;;;;30.31;50.41;94425.09;5056523;28;20039;-84
2023/09/11 14:02:30;;;;;;;9.25;5.72;;;;;;;29.66;51.62;94421.84;5050178;28;20025;-84
2023/09/11 14:04:56;;;;;;;8.77;5.72;;;;;;;29.08;53.07;94433.44;5035412;28;20357;-84
2023/09/11 14:07:21;;;;;;;9.25;6.38;;;;;;;29.20;51.53;94422.25;5037231;28;20029;-83
2023/09/11 14:09:47;;;;;;;12.73;6.43;;;;;;;28.95;52.44;94427.66;5072207;28;20032;-84
2023/09/11 14:12:13;;;;;;;7.95;6.03;;;;;;;29.41;52.05;94423.41;5072097;28;20124;-84
2023/09/11 14:14:39;;;;;;;10.13;5.30;;;;;;;29.68;51.70;94436.47;5055344;28;20483;-84
2023/09/11 14:17:06;;;;;;;13.32;5.15;;;;;;;30.05;51.67;94429.06;5036107;28;20029;-84
2023/09/11 14:19:34;;;;;;;10.50;5.72;;;;;;;28.79;52.27;94433.41;5019104;28;20030;-84
2023/09/11 14:22:00;;;;;;;9.13;6.10;;;;;;;29.02;52.37;94433.03;5019480;28;20033;-84
2023/09/11 14:24:25;;;;;;;9.18;6.03;;;;;;;28.95;53.45;94433.06;5036460;28;20030;-84
2023/09/11 14:26:50;;;;;;;9.35;6.13;;;;;;;28.59;53.57;94428.38;5040575;28;20469;-84
2023/09/11 14:29:16;;;;;;;11.75;6.63;;;;;;;28.95;52.55;94421.50;5054426;28;20056;-83
2023/09/11 14:31:41;;;;;;;13.65;5.68;;;;;;;29.30;53.70;94415.31;5054608;28;20044;-84
2023/09/11 14:34:07;;;;;;;10.38;6.45;;;;;;;29.26;51.86;94414.56;5055097;28;20025;-84
2023/09/11 14:36:32;;;;;;;9.38;5.95;;;;;;;30.27;50.02;94418.16;5038533;28;20082;-84
2023/09/11 14:38:59;;;;;;;11.00;6.47;;;;;;;29.34;51.22;94420.72;5054967;28;20028;-85
2023/09/11 14:41:26;;;;;;;12.77;5.97;;;;;;;29.93;50.70;94415.97;5036519;28;20067;-84
2023/09/11 14:43:53;;;;;;;9.10;6.10;;;;;;;30.40;49.50;94427.38;5045351;28;20041;-83
2023/09/11 14:46:19;;;;;;;14.70;6.65;;;;;;;30.68;48.00;94414.88;5035705;28;20473;-84
2023/09/11 14:48:53;;;;;;;8.55;5.88;;;;;;;30.64;48.40;94424.94;5054902;28;20322;-83
2023/09/11 14:51:19;;;;;;;13.00;5.88;;;;;;;31.44;47.09;94422.41;5055032;28;20036;-83
2023/09/11 14:53:46;;;;;;;12.10;6.32;;;;;;;31.45;46.56;94415.81;5068988;28;20047;-84
2023/09/11 14:56:11;;;;;;;9.63;6.10;;;;;;;32.38;44.75;94422.56;5058556;28;20016;-84
2023/09/11 14:58:37;;;;;;;15.38;5.78;;;;;;;32.09;44.87;94428.31;5058767;28;20111;-84
2023/09/11 15:01:05;;;;;;;12.05;6.00;;;;;;;32.69;44.14;94433.38;5058680;28;20071;-84
2023/09/11 15:03:31;;;;;;;11.13;5.20;;;;;;;32.66;44.17;94429.53;5058813;28;20107;-83
2023/09/11 15:06:00;;;;;;;6.90;5.25;;;;;;;32.98;43.00;94432.97;5058555;28;20116;-84
2023/09/11 15:08:25;;;;;;;8.38;5.68;;;;;;;33.64;41.55;94433.44;5055151;28;20103;-85
2023/09/11 15:10:58;;;;;;;10.10;5.57;;;;;;;31.87;44.14;94428.59;5058229;28;20024;-85
2023/09/11 15:13:25;;;;;;;10.38;5.43;;;;;;;34.54;40.64;94420.06;5058241;28;20135;-85
2023/09/11 15:15:51;;;;;;;7.28;5.07;;;;;;;33.59;41.91;94425.78;5042005;28;20033;-85
2023/09/11 15:18:16;;;;;;;10.45;5.35;;;;;;;35.58;39.26;94420.00;5048576;28;20040;-85
2023/09/11 15:20:42;;;;;;;8.35;5.57;;;;;;;33.45;41.52;94412.47;5021742;28;20033;-84
2023/09/11 15:23:07;;;;;;;8.85;5.60;;;;;;;34.44;39.39;94417.53;5038120;28;20056;-85
2023/09/11 15:25:33;;;;;;;7.90;4.80;;;;;;;34.45;39.97;94419.06;5039340;28;20137;-85
2023/09/11 15:27:58;;;;;;;10.35;5.85;;;;;;;33.04;41.66;94415.06;5041270;28;20517;-84
2023/09/11 15:30:24;;;;;;;13.90;5.47;;;;;;;32.48;42.95;94421.66;5057980;28;20060;-84
2023/09/11 15:32:50;;;;;;;6.57;4.82;;;;;;;36.71;37.95;94421.13;5058086;28;20127;-84
2023/09/11 15:35:15;;;;;;;8.57;5.95;;;;;;;33.23;40.43;94412.81;5057945;28;20107;-84
2023/09/11 15:37:41;;;;;;;7.88;4.88;;;;;;;35.57;38.48;94405.59;5057615;28;20359;-84
2023/09/11 15:40:08;;;;;;;9.82;5.57;;;;;;;34.92;37.97;94404.44;5059468;28;20040;-84
2023/09/11 15:42:34;;;;;;;9.00;5.32;;;;;;;31.53;43.26;94404.91;5057801;28;20029;-84
2023/09/11 15:44:59;;;;;;;9.63;5.57;;;;;;;32.00;42.60;94405.22;5057975;28;20036;-84
2023/09/11 15:47:24;;;;;;;8.93;5.50;;;;;;;31.62;43.11;94404.44;5040891;28;20069;-84
2023/09/11 15:49:50;;;;;;;10.38;4.82;;;;;;;34.38;40.60;94401.75;5040957;28;20190;-85
2023/09/11 15:52:18;;;;;;;6.63;5.22;;;;;;;33.73;40.47;94407.69;5058763;28;20044;-86
2023/09/11 15:54:44;;;;;;;6.43;5.07;;;;;;;34.79;38.88;94398.91;5057911;28;20106;-86
2023/09/11 15:57:09;;;;;;;7.78;5.10;;;;;;;36.50;38.35;94401.47;5057165;28;20033;-86
2023/09/11 15:59:38;;;;;;;5.45;4.57;;;;;;;35.05;39.04;94401.81;5057551;28;20111;-86
2023/09/11 16:02:04;;;;;;;11.85;5.75;;;;;;;31.96;43.78;94393.63;5057815;28;20032;-86
2023/09/11 16:04:30;;;;;;;15.38;5.68;;;;;;;31.02;44.13;94398.00;5056412;28;20031;-84
2023/09/11 16:06:55;;;;;;;8.35;5.07;;;;;;;33.27;42.79;94403.41;5040710;28;20111;-84
2023/09/11 16:09:23;;;;;;;12.18;5.13;;;;;;;34.75;40.05;94398.22;5057501;28;20028;-84
2023/09/11 16:11:50;;;;;;;8.30;5.57;;;;;;;33.26;41.54;94401.09;5040937;28;20499;-84
2023/09/11 16:14:16;;;;;;;11.13;5.53;;;;;;;33.87;41.57;94396.56;5058526;28;20032;-85
2023/09/11 16:16:44;;;;;;;7.80;5.07;;;;;;;32.04;45.68;94394.31;5041244;28;20090;-83
2023/09/11 16:19:10;;;;;;;9.02;5.35;;;;;;;31.53;45.60;94394.88;5040900;28;20067;-83
2023/09/11 16:21:35;;;;;;;10.00;5.53;;;;;;;30.54;48.23;94404.13;5040687;28;20052;-83
2023/09/11 16:24:02;;;;;;;14.25;5.53;;;;;;;30.26;48.81;94395.03;5058222;28;20029;-83
2023/09/11 16:26:48;;;;;;;;;;;;;;;;;;;;;
2023/09/11 16:29:20;;;;;;;9.93;6.22;;;;;;;28.25;52.44;94406.34;5057230;28;20017;-83
2023/09/11 16:31:47;;;;;;;10.40;6.32;;;;;;;27.78;54.72;94404.97;5058043;28;20059;-83
2023/09/11 16:34:12;;;;;;;12.68;5.93;;;;;;;27.57;55.69;94402.94;5056979;28;20056;-83
2023/09/11 16:36:37;;;;;;;16.45;7.20;;;;;;;27.17;56.19;94408.06;5056847;28;20021;-83
2023/09/11 16:39:03;;;;;;;11.02;6.20;;;;;;;26.52;57.30;94402.91;5056709;28;20108;-83
2023/09/11 16:41:31;;;;;;;12.50;6.22;;;;;;;26.47;58.14;94397.09;5056872;28;20047;-83
2023/09/11 16:43:57;;;;;;;7.63;6.00;;;;;;;26.39;60.12;94405.06;5058140;28;20025;-83
2023/09/11 16:46:22;;;;;;;14.25;6.88;;;;;;;26.11;63.29;94403.59;5040240;28;20127;-82